sensor_id;sensor_type;location;lat;lon;timestamp;pressure;altitude;pressure_sealevel;temperature;humidity
29045;BME280;16133;49.486;12.176;2023-02-19T00:01:05;97517.47;;;6.96;100.00
29045;BME280;16133;49.486;12.176;2023-02-19T00:03:30;97511.22;;;6.97;100.00
29045;BME280;16133;49.486;12.176;2023-02-19T00:05:56;97504.94;;;6.98;100.00
29045;BME280;16133;49.486;12.176;2023-02-19T00:08:21;97496.06;;;6.99;100.00
29045;BME280;16133;49.486;12.176;2023-02-19T00:10:46;97493.44;;;6.99;100.00
29045;BME280;16133;49.486;12.176;2023-02-19T00:13:12;97488.31;;;6.97;100.00
29045;BME280;16133;49.486;12.176;2023-02-19T00:15:37;97479.41;;;6.98;100.00
29045;BME280;16133;49.486;12.176;2023-02-19T00:18:02;97489.81;;;7.00;100.00
29045;BME280;16133;49.486;12.176;2023-02-19T00:20:28;97492.59;;;6.98;100.00
29045;BME280;16133;49.486;12.176;2023-02-19T00:22:53;97484.69;;;6.98;100.00
29045;BME280;16133;49.486;12.176;2023-02-19T00:25:18;97494.25;;;6.99;100.00
29045;BME280;16133;49.486;12.176;2023-02-19T00:27:44;97486.34;;;6.99;100.00
29045;BME280;16133;49.486;12.176;2023-02-19T00:30:09;97488.00;;;7.00;100.00
29045;BME280;16133;49.486;12.176;2023-02-19T00:32:35;97485.50;;;6.99;100.00
29045;BME280;16133;49.486;12.176;2023-02-19T00:35:00;97487.31;;;6.98;100.00
29045;BME280;16133;49.486;12.176;2023-02-19T00:37:26;97494.41;;;6.98;100.00
29045;BME280;16133;49.486;12.176;2023-02-19T00:39:51;97493.75;;;6.96;100.00
29045;BME280;16133;49.486;12.176;2023-02-19T00:42:16;97487.63;;;6.95;100.00
29045;BME280;16133;49.486;12.176;2023-02-19T00:44:42;97483.34;;;6.94;100.00
29045;BME280;16133;49.486;12.176;2023-02-19T00:47:07;97484.34;;;6.93;100.00
29045;BME280;16133;49.486;12.176;2023-02-19T00:49:32;97486.16;;;6.93;100.00
29045;BME280;16133;49.486;12.176;2023-02-19T00:51:57;97494.19;;;6.91;100.00
29045;BME280;16133;49.486;12.176;2023-02-19T00:54:23;97494.19;;;6.91;100.00
29045;BME280;16133;49.486;12.176;2023-02-19T00:56:49;97502.81;;;6.93;100.00
29045;BME280;16133;49.486;12.176;2023-02-19T00:59:15;97503.59;;;6.94;100.00
29045;BME280;16133;49.486;12.176;2023-02-19T01:01:41;97495.88;;;6.92;100.00
29045;BME280;16133;49.486;12.176;2023-02-19T01:04:08;97483.28;;;6.86;100.00
29045;BME280;16133;49.486;12.176;2023-02-19T01:06:33;97484.34;;;6.93;100.00
29045;BME280;16133;49.486;12.176;2023-02-19T01:08:59;97477.22;;;6.94;100.00
29045;BME280;16133;49.486;12.176;2023-02-19T01:11:25;97473.78;;;6.93;100.00
29045;BME280;16133;49.486;12.176;2023-02-19T01:13:51;97467.69;;;6.93;100.00
29045;BME280;16133;49.486;12.176;2023-02-19T01:16:21;97465.69;;;6.95;100.00
29045;BME280;16133;49.486;12.176;2023-02-19T01:18:48;97469.16;;;6.95;100.00
29045;BME280;16133;49.486;12.176;2023-02-19T01:21:17;97470.97;;;6.95;100.00
29045;BME280;16133;49.486;12.176;2023-02-19T01:23:44;97467.50;;;6.94;100.00
29045;BME280;16133;49.486;12.176;2023-02-19T01:26:21;97452.69;;;6.93;100.00
29045;BME280;16133;49.486;12.176;2023-02-19T01:28:47;97454.19;;;6.96;100.00
29045;BME280;16133;49.486;12.176;2023-02-19T01:31:18;97441.13;;;6.94;100.00
29045;BME280;16133;49.486;12.176;2023-02-19T01:33:50;97439.50;;;6.93;100.00
29045;BME280;16133;49.486;12.176;2023-02-19T01:36:15;97449.03;;;6.94;100.00
29045;BME280;16133;49.486;12.176;2023-02-19T01:38:41;97444.78;;;6.93;100.00
29045;BME280;16133;49.486;12.176;2023-02-19T01:41:10;97437.84;;;6.92;100.00
29045;BME280;16133;49.486;12.176;2023-02-19T01:46:28;97431.09;;;6.98;100.00
29045;BME280;16133;49.486;12.176;2023-02-19T01:48:57;97428.31;;;6.99;100.00
29045;BME280;16133;49.486;12.176;2023-02-19T01:51:24;97437.06;;;7.00;100.00
29045;BME280;16133;49.486;12.176;2023-02-19T01:53:54;97422.72;;;7.02;100.00
29045;BME280;16133;49.486;12.176;2023-02-19T01:56:23;97426.34;;;7.01;100.00
29045;BME280;16133;49.486;12.176;2023-02-19T01:58:49;97417.75;;;6.99;100.00
29045;BME280;16133;49.486;12.176;2023-02-19T02:01:15;97384.72;;;6.87;100.00
29045;BME280;16133;49.486;12.176;2023-02-19T02:03:42;97402.75;;;7.00;100.00
29045;BME280;16133;49.486;12.176;2023-02-19T02:06:20;97395.34;;;7.03;100.00
29045;BME280;16133;49.486;12.176;2023-02-19T02:08:48;97387.75;;;7.00;100.00
29045;BME280;16133;49.486;12.176;2023-02-19T02:11:33;97398.97;;;7.02;100.00
29045;BME280;16133;49.486;12.176;2023-02-19T02:13:58;97396.66;;;6.99;100.00
29045;BME280;16133;49.486;12.176;2023-02-19T02:30:43;97372.88;;;6.91;100.00
29045;BME280;16133;49.486;12.176;2023-02-19T02:33:35;97383.41;;;6.91;100.00
29045;BME280;16133;49.486;12.176;2023-02-19T02:36:07;97372.22;;;6.89;100.00
29045;BME280;16133;49.486;12.176;2023-02-19T02:38:37;97374.16;;;6.87;100.00
29045;BME280;16133;49.486;12.176;2023-02-19T02:41:03;97363.63;;;6.87;100.00
29045;BME280;16133;49.486;12.176;2023-02-19T02:43:30;97365.44;;;6.87;100.00
29045;BME280;16133;49.486;12.176;2023-02-19T02:45:55;97359.31;;;6.86;100.00
29045;BME280;16133;49.486;12.176;2023-02-19T02:48:34;97359.31;;;6.86;100.00
29045;BME280;16133;49.486;12.176;2023-02-19T02:53:37;97352.41;;;6.85;100.00
29045;BME280;16133;49.486;12.176;2023-02-19T02:56:24;97338.53;;;6.83;100.00
29045;BME280;16133;49.486;12.176;2023-02-19T02:58:51;97349.09;;;6.83;100.00
29045;BME280;16133;49.486;12.176;2023-02-19T03:01:54;97348.44;;;6.81;100.00
29045;BME280;16133;49.486;12.176;2023-02-19T03:07:32;97333.59;;;6.80;100.00
29045;BME280;16133;49.486;12.176;2023-02-19T03:10:02;97330.94;;;6.80;100.00
29045;BME280;16133;49.486;12.176;2023-02-19T03:12:29;97322.53;;;6.77;100.00
29045;BME280;16133;49.486;12.176;2023-02-19T03:15:15;97323.69;;;6.74;100.00
29045;BME280;16133;49.486;12.176;2023-02-19T03:18:02;97300.94;;;6.73;100.00
29045;BME280;16133;49.486;12.176;2023-02-19T03:20:50;97290.53;;;6.71;100.00
29045;BME280;16133;49.486;12.176;2023-02-19T03:23:18;97276.38;;;6.72;100.00
29045;BME280;16133;49.486;12.176;2023-02-19T03:25:46;97264.03;;;6.73;100.00
29045;BME280;16133;49.486;12.176;2023-02-19T03:28:32;97258.56;;;6.74;100.00
29045;BME280;16133;49.486;12.176;2023-02-19T03:31:20;97259.69;;;6.64;100.00
29045;BME280;16133;49.486;12.176;2023-02-19T03:33:52;97238.28;;;6.67;100.00
29045;BME280;16133;49.486;12.176;2023-02-19T03:36:19;97260.88;;;6.69;100.00
29045;BME280;16133;49.486;12.176;2023-02-19T03:39:01;97247.84;;;6.68;100.00
29045;BME280;16133;49.486;12.176;2023-02-19T03:47:08;97269.94;;;6.75;100.00
29045;BME280;16133;49.486;12.176;2023-02-19T03:54:56;97253.47;;;6.73;100.00
29045;BME280;16133;49.486;12.176;2023-02-19T04:00:14;97274.09;;;6.78;100.00
29045;BME280;16133;49.486;12.176;2023-02-19T04:02:55;97281.03;;;6.87;100.00
29045;BME280;16133;49.486;12.176;2023-02-19T04:05:25;97288.44;;;6.83;100.00
29045;BME280;16133;49.486;12.176;2023-02-19T04:07:55;97283.81;;;6.77;100.00
29045;BME280;16133;49.486;12.176;2023-02-19T04:10:22;97275.09;;;6.85;100.00
29045;BME280;16133;49.486;12.176;2023-02-19T04:12:52;97271.75;;;6.74;100.00
29045;BME280;16133;49.486;12.176;2023-02-19T04:15:23;97281.69;;;6.81;100.00
29045;BME280;16133;49.486;12.176;2023-02-19T04:17:56;97276.56;;;6.79;100.00
29045;BME280;16133;49.486;12.176;2023-02-19T04:20:24;97286.44;;;6.77;100.00
29045;BME280;16133;49.486;12.176;2023-02-19T04:22:52;97285.66;;;6.85;100.00
29045;BME280;16133;49.486;12.176;2023-02-19T04:25:17;97285.81;;;6.83;100.00
29045;BME280;16133;49.486;12.176;2023-02-19T04:27:43;97294.44;;;6.93;100.00
29045;BME280;16133;49.486;12.176;2023-02-19T04:30:12;97286.81;;;6.90;100.00
29045;BME280;16133;49.486;12.176;2023-02-19T04:32:37;97319.75;;;6.86;100.00
29045;BME280;16133;49.486;12.176;2023-02-19T04:35:03;97322.25;;;6.88;100.00
29045;BME280;16133;49.486;12.176;2023-02-19T04:37:28;97314.31;;;6.80;100.00
29045;BME280;16133;49.486;12.176;2023-02-19T04:39:54;97306.94;;;6.91;100.00
29045;BME280;16133;49.486;12.176;2023-02-19T04:42:19;97311.56;;;6.89;100.00
29045;BME280;16133;49.486;12.176;2023-02-19T04:44:44;97323.22;;;6.87;100.00
29045;BME280;16133;49.486;12.176;2023-02-19T04:47:10;97321.59;;;6.86;100.00
29045;BME280;16133;49.486;12.176;2023-02-19T04:49:35;97318.78;;;6.87;100.00
29045;BME280;16133;49.486;12.176;2023-02-19T04:52:00;97330.06;;;6.97;100.00
29045;BME280;16133;49.486;12.176;2023-02-19T04:54:26;97341.94;;;7.01;100.00
29045;BME280;16133;49.486;12.176;2023-02-19T04:56:51;97350.00;;;7.00;100.00
29045;BME280;16133;49.486;12.176;2023-02-19T04:59:17;97341.53;;;6.88;100.00
29045;BME280;16133;49.486;12.176;2023-02-19T05:01:42;97347.84;;;6.95;100.00
29045;BME280;16133;49.486;12.176;2023-02-19T05:04:07;97338.44;;;6.93;100.00
29045;BME280;16133;49.486;12.176;2023-02-19T05:06:33;97335.94;;;6.91;100.00
29045;BME280;16133;49.486;12.176;2023-02-19T05:08:58;97347.50;;;6.98;100.00
29045;BME280;16133;49.486;12.176;2023-02-19T05:11:24;97342.41;;;6.97;100.00
29045;BME280;16133;49.486;12.176;2023-02-19T05:13:49;97351.50;;;7.02;100.00
29045;BME280;16133;49.486;12.176;2023-02-19T05:16:15;97358.03;;;6.90;100.00
29045;BME280;16133;49.486;12.176;2023-02-19T05:18:42;97355.38;;;6.90;100.00
29045;BME280;16133;49.486;12.176;2023-02-19T05:21:09;97373.38;;;6.95;100.00
29045;BME280;16133;49.486;12.176;2023-02-19T05:23:34;97351.41;;;6.86;100.00
29045;BME280;16133;49.486;12.176;2023-02-19T05:26:17;97367.69;;;7.07;100.00
29045;BME280;16133;49.486;12.176;2023-02-19T05:28:49;97377.00;;;6.94;100.00
29045;BME280;16133;49.486;12.176;2023-02-19T05:31:14;97362.50;;;6.90;100.00
29045;BME280;16133;49.486;12.176;2023-02-19T05:33:40;97359.34;;;6.94;100.00
29045;BME280;16133;49.486;12.176;2023-02-19T05:36:12;97372.56;;;6.94;100.00
29045;BME280;16133;49.486;12.176;2023-02-19T05:38:38;97353.38;;;6.84;100.00
29045;BME280;16133;49.486;12.176;2023-02-19T05:41:15;97365.28;;;6.88;100.00
29045;BME280;16133;49.486;12.176;2023-02-19T05:43:42;97383.66;;;7.06;100.00
29045;BME280;16133;49.486;12.176;2023-02-19T05:46:09;97382.59;;;6.91;100.00
29045;BME280;16133;49.486;12.176;2023-02-19T05:48:35;97390.22;;;7.02;100.00
29045;BME280;16133;49.486;12.176;2023-02-19T05:51:09;97383.78;;;6.96;100.00
29045;BME280;16133;49.486;12.176;2023-02-19T05:53:35;97396.56;;;7.09;100.00
29045;BME280;16133;49.486;12.176;2023-02-19T05:56:01;97396.34;;;7.02;100.00
29045;BME280;16133;49.486;12.176;2023-02-19T05:58:27;97393.38;;;6.97;100.00
29045;BME280;16133;49.486;12.176;2023-02-19T06:00:53;97405.75;;;7.05;100.00
29045;BME280;16133;49.486;12.176;2023-02-19T06:03:19;97422.38;;;7.05;100.00
29045;BME280;16133;49.486;12.176;2023-02-19T06:05:44;97429.00;;;7.09;100.00
29045;BME280;16133;49.486;12.176;2023-02-19T06:08:12;97427.66;;;7.05;100.00
29045;BME280;16133;49.486;12.176;2023-02-19T06:10:37;97425.66;;;6.99;100.00
29045;BME280;16133;49.486;12.176;2023-02-19T06:13:06;97419.75;;;6.97;100.00
29045;BME280;16133;49.486;12.176;2023-02-19T06:15:31;97404.88;;;6.96;100.00
29045;BME280;16133;49.486;12.176;2023-02-19T06:17:56;97393.69;;;7.02;100.00
29045;BME280;16133;49.486;12.176;2023-02-19T06:20:22;97420.13;;;7.10;100.00
29045;BME280;16133;49.486;12.176;2023-02-19T06:22:49;97439.28;;;7.12;100.00
29045;BME280;16133;49.486;12.176;2023-02-19T06:25:14;97444.56;;;7.12;100.00
29045;BME280;16133;49.486;12.176;2023-02-19T06:27:40;97450.34;;;7.16;100.00
29045;BME280;16133;49.486;12.176;2023-02-19T06:30:05;97443.22;;;7.08;100.00
29045;BME280;16133;49.486;12.176;2023-02-19T06:32:31;97442.47;;;6.98;100.00
29045;BME280;16133;49.486;12.176;2023-02-19T06:34:56;97455.41;;;7.09;100.00
29045;BME280;16133;49.486;12.176;2023-02-19T06:37:22;97460.06;;;7.15;100.00
29045;BME280;16133;49.486;12.176;2023-02-19T06:39:47;97453.72;;;7.00;100.00
29045;BME280;16133;49.486;12.176;2023-02-19T06:42:12;97429.66;;;7.03;100.00
29045;BME280;16133;49.486;12.176;2023-02-19T06:44:38;97442.69;;;7.05;100.00
29045;BME280;16133;49.486;12.176;2023-02-19T06:47:03;97456.22;;;7.10;100.00
29045;BME280;16133;49.486;12.176;2023-02-19T06:49:29;97434.88;;;6.95;100.00
29045;BME280;16133;49.486;12.176;2023-02-19T06:51:54;97449.94;;;7.03;100.00
29045;BME280;16133;49.486;12.176;2023-02-19T06:54:19;97458.22;;;7.08;100.00
29045;BME280;16133;49.486;12.176;2023-02-19T06:56:45;97445.47;;;7.03;100.00
29045;BME280;16133;49.486;12.176;2023-02-19T06:59:13;97452.81;;;7.17;100.00
29045;BME280;16133;49.486;12.176;2023-02-19T07:01:41;97483.44;;;7.10;100.00
29045;BME280;16133;49.486;12.176;2023-02-19T07:04:07;97494.69;;;7.12;100.00
29045;BME280;16133;49.486;12.176;2023-02-19T07:06:33;97490.91;;;7.15;100.00
29045;BME280;16133;49.486;12.176;2023-02-19T07:08:59;97471.22;;;7.09;100.00
29045;BME280;16133;49.486;12.176;2023-02-19T07:11:26;97475.38;;;7.12;100.00
29045;BME280;16133;49.486;12.176;2023-02-19T07:13:54;97478.81;;;7.04;100.00
29045;BME280;16133;49.486;12.176;2023-02-19T07:16:21;97483.75;;;7.07;100.00
29045;BME280;16133;49.486;12.176;2023-02-19T07:18:46;97499.78;;;7.14;100.00
29045;BME280;16133;49.486;12.176;2023-02-19T07:21:14;97500.00;;;7.20;100.00
29045;BME280;16133;49.486;12.176;2023-02-19T07:23:40;97497.97;;;7.14;100.00
29045;BME280;16133;49.486;12.176;2023-02-19T07:26:10;97497.31;;;7.12;100.00
29045;BME280;16133;49.486;12.176;2023-02-19T07:28:37;97496.56;;;7.02;100.00
29045;BME280;16133;49.486;12.176;2023-02-19T07:31:04;97507.19;;;7.10;100.00
29045;BME280;16133;49.486;12.176;2023-02-19T07:33:30;97505.06;;;7.14;100.00
29045;BME280;16133;49.486;12.176;2023-02-19T07:35:56;97505.13;;;7.22;100.00
29045;BME280;16133;49.486;12.176;2023-02-19T07:38:23;97496.81;;;7.17;100.00
29045;BME280;16133;49.486;12.176;2023-02-19T07:40:57;97497.66;;;7.17;100.00
29045;BME280;16133;49.486;12.176;2023-02-19T07:43:24;97499.19;;;7.20;100.00
29045;BME280;16133;49.486;12.176;2023-02-19T07:45:50;97497.28;;;7.38;100.00
29045;BME280;16133;49.486;12.176;2023-02-19T07:48:16;97508.00;;;7.37;100.00
29045;BME280;16133;49.486;12.176;2023-02-19T07:50:50;97502.44;;;7.48;100.00
29045;BME280;16133;49.486;12.176;2023-02-19T07:53:15;97528.41;;;7.60;100.00
29045;BME280;16133;49.486;12.176;2023-02-19T07:55:41;97558.69;;;7.74;100.00
29045;BME280;16133;49.486;12.176;2023-02-19T07:58:06;97563.22;;;7.98;100.00
29045;BME280;16133;49.486;12.176;2023-02-19T08:00:31;97556.34;;;7.71;100.00
29045;BME280;16133;49.486;12.176;2023-02-19T08:02:57;97550.78;;;7.82;100.00
29045;BME280;16133;49.486;12.176;2023-02-19T08:05:33;97555.75;;;7.77;100.00
29045;BME280;16133;49.486;12.176;2023-02-19T08:07:59;97559.88;;;7.80;100.00
29045;BME280;16133;49.486;12.176;2023-02-19T08:10:25;97561.06;;;7.85;100.00
29045;BME280;16133;49.486;12.176;2023-02-19T08:13:14;97574.63;;;7.98;100.00
29045;BME280;16133;49.486;12.176;2023-02-19T08:15:54;97581.25;;;8.02;100.00
29045;BME280;16133;49.486;12.176;2023-02-19T08:18:22;97570.31;;;7.89;100.00
29045;BME280;16133;49.486;12.176;2023-02-19T08:20:48;97583.38;;;7.99;100.00
29045;BME280;16133;49.486;12.176;2023-02-19T08:23:14;97580.28;;;8.03;100.00
29045;BME280;16133;49.486;12.176;2023-02-19T08:25:39;97578.00;;;8.08;100.00
29045;BME280;16133;49.486;12.176;2023-02-19T08:28:06;97584.44;;;8.14;100.00
29045;BME280;16133;49.486;12.176;2023-02-19T08:30:32;97572.41;;;8.20;100.00
29045;BME280;16133;49.486;12.176;2023-02-19T08:32:59;97596.28;;;8.44;100.00
29045;BME280;16133;49.486;12.176;2023-02-19T08:35:25;97596.59;;;8.33;100.00
29045;BME280;16133;49.486;12.176;2023-02-19T08:37:57;97594.94;;;8.40;100.00
29045;BME280;16133;49.486;12.176;2023-02-19T08:40:24;97605.22;;;8.51;100.00
29045;BME280;16133;49.486;12.176;2023-02-19T08:42:49;97606.22;;;8.50;100.00
29045;BME280;16133;49.486;12.176;2023-02-19T08:45:15;97600.00;;;8.83;100.00
29045;BME280;16133;49.486;12.176;2023-02-19T08:47:40;97604.63;;;8.73;100.00
29045;BME280;16133;49.486;12.176;2023-02-19T08:50:06;97602.81;;;8.66;100.00
29045;BME280;16133;49.486;12.176;2023-02-19T08:52:32;97603.78;;;8.64;100.00
29045;BME280;16133;49.486;12.176;2023-02-19T08:54:58;97605.59;;;8.64;100.00
29045;BME280;16133;49.486;12.176;2023-02-19T08:57:24;97617.84;;;8.73;100.00
29045;BME280;16133;49.486;12.176;2023-02-19T08:59:50;97597.53;;;8.98;100.00
29045;BME280;16133;49.486;12.176;2023-02-19T09:02:16;97605.44;;;8.90;100.00
29045;BME280;16133;49.486;12.176;2023-02-19T09:04:41;97623.19;;;9.22;100.00
29045;BME280;16133;49.486;12.176;2023-02-19T09:07:06;97622.53;;;9.11;100.00
29045;BME280;16133;49.486;12.176;2023-02-19T09:09:36;97633.44;;;9.00;100.00
29045;BME280;16133;49.486;12.176;2023-02-19T09:12:04;97634.25;;;9.09;100.00
29045;BME280;16133;49.486;12.176;2023-02-19T09:14:33;97645.34;;;9.04;100.00
29045;BME280;16133;49.486;12.176;2023-02-19T09:17:00;97638.56;;;9.02;100.00
29045;BME280;16133;49.486;12.176;2023-02-19T09:19:26;97640.56;;;9.08;100.00
29045;BME280;16133;49.486;12.176;2023-02-19T09:21:52;97648.81;;;9.05;100.00
29045;BME280;16133;49.486;12.176;2023-02-19T09:24:18;97662.25;;;9.20;100.00
29045;BME280;16133;49.486;12.176;2023-02-19T09:26:43;97661.91;;;9.15;100.00
29045;BME280;16133;49.486;12.176;2023-02-19T09:29:08;97665.19;;;9.25;100.00
29045;BME280;16133;49.486;12.176;2023-02-19T09:31:34;97679.44;;;9.24;100.00
29045;BME280;16133;49.486;12.176;2023-02-19T09:34:00;97665.19;;;9.33;100.00
29045;BME280;16133;49.486;12.176;2023-02-19T09:36:25;97662.22;;;9.36;100.00
29045;BME280;16133;49.486;12.176;2023-02-19T09:38:50;97669.19;;;9.29;100.00
29045;BME280;16133;49.486;12.176;2023-02-19T09:41:34;97667.84;;;9.17;100.00
29045;BME280;16133;49.486;12.176;2023-02-19T09:44:03;97674.97;;;9.24;100.00
29045;BME280;16133;49.486;12.176;2023-02-19T09:46:34;97678.44;;;9.49;100.00
29045;BME280;16133;49.486;12.176;2023-02-19T09:49:30;97686.69;;;9.70;100.00
29045;BME280;16133;49.486;12.176;2023-02-19T09:54:29;97682.09;;;9.72;100.00
29045;BME280;16133;49.486;12.176;2023-02-19T09:56:57;97687.72;;;9.77;100.00
29045;BME280;16133;49.486;12.176;2023-02-19T09:59:45;97692.84;;;9.71;100.00
29045;BME280;16133;49.486;12.176;2023-02-19T10:04:41;97703.44;;;9.71;100.00
29045;BME280;16133;49.486;12.176;2023-02-19T10:07:17;97704.59;;;9.68;100.00
29045;BME280;16133;49.486;12.176;2023-02-19T10:12:37;97698.97;;;9.55;100.00
29045;BME280;16133;49.486;12.176;2023-02-19T10:15:28;97714.22;;;9.45;100.00
29045;BME280;16133;49.486;12.176;2023-02-19T10:17:55;97715.16;;;9.28;100.00
29045;BME280;16133;49.486;12.176;2023-02-19T10:20:21;97720.47;;;9.36;100.00
29045;BME280;16133;49.486;12.176;2023-02-19T10:25:23;97719.31;;;9.14;100.00
29045;BME280;16133;49.486;12.176;2023-02-19T10:27:48;97718.94;;;9.09;100.00
29045;BME280;16133;49.486;12.176;2023-02-19T10:30:22;97732.69;;;9.12;100.00
29045;BME280;16133;49.486;12.176;2023-02-19T10:35:24;97730.44;;;9.34;100.00
29045;BME280;16133;49.486;12.176;2023-02-19T10:37:50;97739.00;;;9.11;100.00
29045;BME280;16133;49.486;12.176;2023-02-19T10:40:18;97737.50;;;9.17;100.00
29045;BME280;16133;49.486;12.176;2023-02-19T10:42:46;97736.38;;;9.20;100.00
29045;BME280;16133;49.486;12.176;2023-02-19T10:45:22;97748.47;;;9.30;100.00
29045;BME280;16133;49.486;12.176;2023-02-19T10:47:48;97752.25;;;9.28;100.00
29045;BME280;16133;49.486;12.176;2023-02-19T10:50:34;97760.81;;;9.05;100.00
29045;BME280;16133;49.486;12.176;2023-02-19T10:53:19;97759.44;;;8.93;100.00
29045;BME280;16133;49.486;12.176;2023-02-19T10:55:46;97750.50;;;8.86;100.00
29045;BME280;16133;49.486;12.176;2023-02-19T10:58:25;97756.78;;;8.93;100.00
29045;BME280;16133;49.486;12.176;2023-02-19T11:01:28;97748.19;;;8.91;100.00
29045;BME280;16133;49.486;12.176;2023-02-19T11:04:15;97746.59;;;9.15;100.00
29045;BME280;16133;49.486;12.176;2023-02-19T11:06:41;97746.47;;;9.32;100.00
29045;BME280;16133;49.486;12.176;2023-02-19T11:09:23;97756.25;;;9.64;100.00
29045;BME280;16133;49.486;12.176;2023-02-19T11:11:51;97753.94;;;10.01;100.00
29045;BME280;16133;49.486;12.176;2023-02-19T11:14:19;97747.28;;;10.14;100.00
29045;BME280;16133;49.486;12.176;2023-02-19T11:16:50;97751.75;;;10.13;100.00
29045;BME280;16133;49.486;12.176;2023-02-19T11:19:38;97756.75;;;10.00;100.00
29045;BME280;16133;49.486;12.176;2023-02-19T11:22:33;97750.28;;;9.86;100.00
29045;BME280;16133;49.486;12.176;2023-02-19T11:25:20;97756.28;;;9.80;100.00
29045;BME280;16133;49.486;12.176;2023-02-19T11:28:07;97760.56;;;9.81;100.00
29045;BME280;16133;49.486;12.176;2023-02-19T11:30:45;97769.19;;;9.75;100.00
29045;BME280;16133;49.486;12.176;2023-02-19T11:38:39;97767.69;;;9.48;100.00
29045;BME280;16133;49.486;12.176;2023-02-19T11:41:08;97755.41;;;9.47;100.00
29045;BME280;16133;49.486;12.176;2023-02-19T11:46:34;97764.19;;;9.40;100.00
29045;BME280;16133;49.486;12.176;2023-02-19T12:00:16;97783.56;;;10.13;100.00
29045;BME280;16133;49.486;12.176;2023-02-19T12:03:10;97777.81;;;10.26;100.00
29045;BME280;16133;49.486;12.176;2023-02-19T12:10:57;97782.72;;;10.45;100.00
29045;BME280;16133;49.486;12.176;2023-02-19T12:16:24;97788.13;;;10.68;100.00
29045;BME280;16133;49.486;12.176;2023-02-19T12:22:53;97783.38;;;10.39;100.00
29045;BME280;16133;49.486;12.176;2023-02-19T12:35:33;97773.22;;;10.59;100.00
29045;BME280;16133;49.486;12.176;2023-02-19T12:40:48;97776.72;;;10.98;96.18
29045;BME280;16133;49.486;12.176;2023-02-19T12:43:18;97764.25;;;11.07;98.81
29045;BME280;16133;49.486;12.176;2023-02-19T12:48:39;97765.16;;;11.22;95.33
29045;BME280;16133;49.486;12.176;2023-02-19T12:51:27;97777.94;;;11.26;93.28
29045;BME280;16133;49.486;12.176;2023-02-19T12:54:18;97784.19;;;11.02;92.86
29045;BME280;16133;49.486;12.176;2023-02-19T12:56:53;97789.44;;;10.80;95.21
29045;BME280;16133;49.486;12.176;2023-02-19T13:02:27;97788.88;;;11.23;95.21
29045;BME280;16133;49.486;12.176;2023-02-19T13:08:06;97773.88;;;11.08;96.61
29045;BME280;16133;49.486;12.176;2023-02-19T13:10:42;97809.38;;;11.15;94.17
29045;BME280;16133;49.486;12.176;2023-02-19T13:13:19;97793.53;;;10.90;96.56
29045;BME280;16133;49.486;12.176;2023-02-19T13:15:54;97796.81;;;10.92;99.33
29045;BME280;16133;49.486;12.176;2023-02-19T13:18:29;97789.53;;;11.25;96.04
29045;BME280;16133;49.486;12.176;2023-02-19T13:20:56;97789.03;;;11.30;97.25
29045;BME280;16133;49.486;12.176;2023-02-19T13:23:30;97789.47;;;11.41;93.46
29045;BME280;16133;49.486;12.176;2023-02-19T13:32:16;97807.09;;;11.03;94.27
29045;BME280;16133;49.486;12.176;2023-02-19T13:37:30;97815.13;;;10.87;94.57
29045;BME280;16133;49.486;12.176;2023-02-19T13:40:02;97819.13;;;10.83;95.30
29045;BME280;16133;49.486;12.176;2023-02-19T13:42:33;97806.97;;;10.89;95.93
29045;BME280;16133;49.486;12.176;2023-02-19T13:45:01;97817.75;;;10.95;93.46
29045;BME280;16133;49.486;12.176;2023-02-19T13:50:23;97826.09;;;10.84;92.73
29045;BME280;16133;49.486;12.176;2023-02-19T13:52:50;97817.13;;;10.77;94.05
29045;BME280;16133;49.486;12.176;2023-02-19T13:58:51;97810.88;;;10.62;95.35
29045;BME280;16133;49.486;12.176;2023-02-19T14:01:17;97814.22;;;10.48;93.89
29045;BME280;16133;49.486;12.176;2023-02-19T14:03:52;97820.56;;;10.31;95.60
29045;BME280;16133;49.486;12.176;2023-02-19T14:06:18;97831.16;;;9.98;99.84
29045;BME280;16133;49.486;12.176;2023-02-19T14:09:01;97830.81;;;9.69;100.00
29045;BME280;16133;49.486;12.176;2023-02-19T14:14:26;97836.13;;;9.19;100.00
29045;BME280;16133;49.486;12.176;2023-02-19T14:30:30;97839.38;;;9.05;100.00
29045;BME280;16133;49.486;12.176;2023-02-19T14:32:57;97833.22;;;8.88;100.00
29045;BME280;16133;49.486;12.176;2023-02-19T14:35:33;97854.38;;;8.88;100.00
29045;BME280;16133;49.486;12.176;2023-02-19T14:37:59;97855.50;;;8.86;100.00
29045;BME280;16133;49.486;12.176;2023-02-19T14:40:37;97857.59;;;8.74;100.00
29045;BME280;16133;49.486;12.176;2023-02-19T14:43:05;97849.91;;;8.63;100.00
29045;BME280;16133;49.486;12.176;2023-02-19T14:45:45;97855.78;;;8.49;100.00
29045;BME280;16133;49.486;12.176;2023-02-19T14:48:19;97858.00;;;8.36;100.00
29045;BME280;16133;49.486;12.176;2023-02-19T14:50:49;97866.16;;;8.25;100.00
29045;BME280;16133;49.486;12.176;2023-02-19T14:53:15;97877.97;;;8.30;100.00
29045;BME280;16133;49.486;12.176;2023-02-19T14:55:42;97872.28;;;8.25;100.00
29045;BME280;16133;49.486;12.176;2023-02-19T14:58:15;97886.19;;;8.45;100.00
29045;BME280;16133;49.486;12.176;2023-02-19T15:00:42;97881.28;;;8.14;100.00
29045;BME280;16133;49.486;12.176;2023-02-19T15:05:55;97866.66;;;8.02;100.00
29045;BME280;16133;49.486;12.176;2023-02-19T15:08:27;97869.84;;;7.88;100.00
29045;BME280;16133;49.486;12.176;2023-02-19T15:10:55;97857.97;;;7.75;100.00
29045;BME280;16133;49.486;12.176;2023-02-19T15:13:26;97842.94;;;7.75;100.00
29045;BME280;16133;49.486;12.176;2023-02-19T15:15:52;97836.84;;;7.75;100.00
29045;BME280;16133;49.486;12.176;2023-02-19T15:18:22;97824.91;;;7.70;100.00
29045;BME280;16133;49.486;12.176;2023-02-19T15:20:48;97817.75;;;7.63;100.00